Latest Weather Observations for Roebourne Airport

IDW60801

Issued at 12:05 pm WST Saturday 2 August 2014 (issued every 30 minutes, with the page automatically refreshed every 10 minutes)

About weather observations | Map of weather stations | Latest weather observations for WA | Other Formats
Station Details ID: 004090 Name: ROEBOURNE AERO Lat: -20.76 Lon: 117.16 Height: 10.7 m
Data from the previous 72 hours. | See also: Recent months at Roebourne Airport
Date/Time
WST
Temp
°C
App
Temp
°C
Dew
Point
Rel
Hum
%
Delta-T
°C
Wind Press
QNH
hPa
Press
MSL
hPa
Rain
since 9 am
mm
Dir
 
Spd
km/h
Gust
km/h
Spd
kts
Gust
kts
02/12:00pm 28.6 23.8 4.8 22 12.2 ESE 19 26 10 14 1019.0 1018.9 0.0
02/11:30am 28.5 23.7 5.4 23 12.0 E 20 26 11 14 1019.5 - 0.0
02/11:00am 27.5 22.6 5.1 24 11.5 ESE 20 32 11 17 1019.8 1019.7 0.0
02/10:30am 26.4 21.2 5.4 26 10.8 E 22 30 12 16 1020.2 - 0.0
02/10:00am 25.7 20.8 5.3 27 10.4 E 20 30 11 16 1020.5 1020.4 0.0
02/09:30am 24.8 19.2 5.6 29 9.8 ESE 24 30 13 16 1020.6 - 0.0
02/09:00am 23.7 17.7 5.1 30 9.3 ESE 26 33 14 18 1020.5 1020.4 0.0
02/08:30am 22.5 16.1 5.4 33 8.5 ESE 28 33 15 18 1020.2 - 0.0
02/08:00am 20.9 15.7 5.7 37 7.5 ESE 22 30 12 16 1019.8 1019.7 0.0
02/07:30am 17.5 12.4 6.1 47 5.6 ESE 22 28 12 15 1019.5 - 0.0
02/07:00am 14.8 11.1 6.4 57 4.0 ESE 15 17 8 9 1019.2 1019.1 0.0
02/06:30am 12.2 11.5 6.9 70 2.5 CALM 0 0 0 0 1018.8 - 0.0
02/06:00am 12.7 10.9 7.0 68 2.7 ENE 6 7 3 4 1018.5 1018.4 0.0
02/05:30am 12.5 10.6 7.6 72 2.4 E 7 11 4 6 1018.3 - 0.0
02/05:00am 12.7 10.5 8.0 73 2.3 SSE 9 11 5 6 1018.0 1017.9 0.0
02/04:30am 14.4 12.8 8.6 68 2.9 SW 7 9 4 5 1017.4 - 0.0
02/04:00am 13.9 11.1 8.5 70 2.7 SSW 13 13 7 7 1017.6 1017.5 0.0
02/03:30am 13.3 11.4 7.7 69 2.8 SSW 7 9 4 5 1017.9 - 0.0
02/03:00am 13.7 11.8 7.5 66 3.0 SSW 7 7 4 4 1018.0 1017.9 0.0
02/02:30am 14.5 12.1 8.7 68 2.9 SSW 11 11 6 6 1018.1 - 0.0
02/02:00am 14.9 12.9 8.6 66 3.2 SSW 9 13 5 7 1018.2 1018.1 0.0
02/01:30am 14.8 12.2 9.4 70 2.8 SSW 13 15 7 8 1018.3 - 0.0
02/01:00am 15.5 12.6 9.8 69 3.0 SSW 15 15 8 8 1018.4 1018.3 0.0
02/12:30am 15.6 12.8 9.9 69 3.0 SSW 15 15 8 8 1018.5 - 0.0
02/12:00am 14.8 12.0 8.5 66 3.2 SSW 13 15 7 8 1018.6 1018.5 0.0
 
Date/Time
WST
Temp
°C
App
Temp
°C
Dew
Point
Rel
Hum
%
Delta-T
°C
Wind Press
QNH
hPa
Press
MSL
hPa
Rain
since 9 am
mm
Dir
 
Spd
km/h
Gust
km/h
Spd
kts
Gust
kts
01/11:30pm 15.5 12.5 9.4 67 3.1 SW 15 17 8 9 1018.6 - 0.0
01/11:00pm 14.5 11.5 7.5 63 3.4 SSW 13 13 7 7 1018.6 1018.5 0.0
01/10:30pm 15.6 15.3 8.6 63 3.6 CALM 0 4 0 2 1018.7 - 0.0
01/10:00pm 16.8 16.0 9.5 62 3.8 W 4 6 2 3 1018.7 1018.6 0.0
01/09:30pm 16.7 14.6 8.4 58 4.2 SSW 9 11 5 6 1018.6 - 0.0
01/09:00pm 16.5 13.5 7.7 56 4.4 SSW 13 13 7 7 1018.6 1018.5 0.0
01/08:30pm 17.3 16.5 6.5 49 5.3 CALM 0 0 0 0 1018.3 - 0.0
01/08:00pm 18.3 17.0 7.7 50 5.4 SW 4 7 2 4 1018.1 1018.0 0.0
01/07:30pm 19.5 17.4 8.2 48 5.8 WSW 9 9 5 5 1017.6 - 0.0
01/07:00pm 20.9 19.3 8.9 46 6.3 WNW 7 7 4 4 1017.4 1017.3 0.0
01/06:30pm 22.1 20.6 10.6 48 6.3 NW 9 11 5 6 1017.1 - 0.0
01/06:00pm 23.2 21.3 10.6 45 6.9 NNW 11 13 6 7 1016.8 1016.7 0.0
01/05:30pm 25.5 23.1 10.1 38 8.5 N 13 17 7 9 1016.5 - 0.0
01/05:00pm 27.5 24.6 9.8 33 9.8 N 15 19 8 10 1016.3 1016.2 0.0
01/04:30pm 28.9 24.7 5.7 23 12.1 N 17 20 9 11 1016.2 - 0.0
01/04:00pm 29.5 25.2 6.8 24 12.1 N 19 22 10 12 1016.1 1016.0 0.0
01/03:30pm 30.4 25.6 5.6 21 13.1 NNE 20 26 11 14 1016.0 - 0.0
01/03:00pm 30.1 25.6 6.1 22 12.7 N 19 24 10 13 1016.0 1015.9 0.0
01/02:30pm 30.6 25.9 5.1 20 13.3 N 19 24 10 13 1016.2 - 0.0
01/02:00pm 29.7 24.5 5.7 22 12.6 NNE 22 28 12 15 1016.5 1016.4 0.0
01/01:30pm 30.0 24.9 6.0 22 12.7 NNE 22 28 12 15 1016.8 - 0.0
01/01:00pm 30.7 26.0 5.9 21 13.1 NNE 20 26 11 14 1017.2 1017.1 0.0
01/12:30pm 30.9 25.7 5.3 20 13.5 NE 22 32 12 17 1017.5 - 0.0
01/12:00pm 31.2 26.1 4.1 18 14.0 E 20 30 11 16 1018.0 1017.9 0.0
01/11:30am 29.9 24.5 4.5 20 13.1 E 22 30 12 16 1018.5 - 0.0
01/11:00am 29.1 24.1 4.6 21 12.6 E 20 28 11 15 1018.9 1018.8 0.0
01/10:30am 28.9 23.6 5.1 22 12.3 E 22 30 12 16 1019.3 - 0.0
01/10:00am 28.3 23.3 4.6 22 12.1 E 20 33 11 18 1019.3 1019.2 0.0
01/09:30am 27.8 22.5 4.8 23 11.8 E 22 28 12 15 1019.2 - 0.0
01/09:00am 26.7 22.2 6.2 27 10.7 ESE 19 24 10 13 1018.9 1018.8 0.0
01/08:30am 23.5 21.2 7.6 36 8.3 ESE 9 13 5 7 1018.5 - 0.0
01/08:00am 19.0 18.8 8.9 52 5.3 CALM 0 0 0 0 1018.1 1018.0 0.0
01/07:30am 15.4 15.5 10.0 70 2.8 CALM 0 4 0 2 1017.9 - 0.0
01/07:00am 11.7 9.9 7.2 74 2.2 E 6 7 3 4 1017.6 1017.5 0.0
01/06:30am 12.1 11.6 7.8 75 2.1 CALM 0 6 0 3 1017.3 - 0.0
01/06:00am 12.4 10.7 7.7 73 2.3 NNE 6 9 3 5 1017.0 1016.9 0.0
01/05:30am 14.4 13.0 9.6 73 2.5 SW 7 7 4 4 1016.6 - 0.0
01/05:00am 13.5 11.5 8.6 72 2.5 SE 9 11 5 6 1016.6 1016.5 0.0
01/04:30am 13.4 11.2 8.0 70 2.7 SE 9 11 5 6 1016.5 - 0.0
01/04:00am 14.0 13.6 8.2 68 2.9 CALM 0 0 0 0 1016.4 1016.3 0.0
01/03:30am 13.9 13.5 8.1 68 2.9 CALM 0 0 0 0 1016.6 - 0.0
01/03:00am 14.4 14.2 9.0 70 2.7 CALM 0 0 0 0 1016.6 1016.5 0.0
01/02:30am 15.8 15.2 10.3 70 2.9 NE 4 6 2 3 1016.7 - 0.0
01/02:00am 15.1 14.5 8.8 66 3.2 WSW 2 9 1 5 1016.7 1016.6 0.0
01/01:30am 16.9 15.1 9.6 62 3.8 SSW 9 11 5 6 1016.8 - 0.0
01/01:00am 17.2 15.4 9.4 60 4.1 SSW 9 11 5 6 1017.0 1016.9 0.0
01/12:30am 17.6 15.7 9.2 58 4.4 SSW 9 11 5 6 1017.2 - 0.0
01/12:00am 16.4 14.0 10.0 66 3.4 SW 13 15 7 8 1017.3 1017.2 0.0
 
Date/Time
WST
Temp
°C
App
Temp
°C
Dew
Point
Rel
Hum
%
Delta-T
°C
Wind Press
QNH
hPa
Press
MSL
hPa
Rain
since 9 am
mm
Dir
 
Spd
km/h
Gust
km/h
Spd
kts
Gust
kts
31/11:30pm 18.3 16.8 10.7 61 4.1 SSW 9 9 5 5 1017.5 - 0.0
31/11:00pm 17.6 15.2 10.0 61 4.0 SSW 13 15 7 8 1017.6 1017.5 0.0
31/10:30pm 17.2 14.9 8.9 58 4.3 SW 11 13 6 7 1017.6 - 0.0
31/10:00pm 17.7 15.5 8.0 53 4.9 SW 9 11 5 6 1017.7 1017.6 0.0
31/09:30pm 18.3 17.2 9.9 58 4.5 WSW 6 9 3 5 1017.4 - 0.0
31/09:00pm 17.8 15.8 10.2 61 4.0 SSW 11 15 6 8 1017.5 1017.4 0.0
31/08:30pm 19.3 18.6 11.3 60 4.4 N 6 9 3 5 1017.2 - 0.0
31/08:00pm 19.6 19.4 10.3 55 5.0 N 2 6 1 3 1017.1 1017.0 0.0
31/07:30pm 21.8 21.0 11.2 51 5.9 NNW 6 7 3 4 1016.8 - 0.0
31/07:00pm 21.9 20.0 10.4 48 6.3 N 11 13 6 7 1016.5 1016.4 0.0
31/06:30pm 23.4 21.1 9.0 40 7.7 NW 11 15 6 8 1016.2 - 0.0
31/06:00pm 24.8 22.8 11.4 43 7.6 N 13 15 7 8 1016.0 1015.9 0.0
31/05:30pm 28.3 25.1 8.6 29 10.8 N 15 24 8 13 1015.9 - 0.0
31/05:00pm 30.3 26.7 4.9 20 13.2 N 13 17 7 9 1015.9 1015.8 0.0
31/04:30pm 31.2 27.1 4.1 18 14.0 N 15 19 8 10 1015.8 - 0.0
31/04:00pm 31.3 26.9 4.9 19 13.8 N 17 20 9 11 1015.6 1015.5 0.0
31/03:30pm 31.1 26.9 5.5 20 13.5 NNE 17 22 9 12 1015.7 - 0.0
31/03:00pm 31.7 27.6 4.5 18 14.2 NNE 15 20 8 11 1015.7 1015.6 0.0
31/02:30pm 31.2 26.7 6.3 21 13.3 NNE 19 24 10 13 1016.2 - 0.0
31/02:00pm 32.0 27.7 7.0 21 13.6 NNE 19 28 10 15 1016.4 1016.3 0.0
31/01:30pm 32.1 27.9 5.6 19 14.1 NE 17 24 9 13 1016.7 - 0.0
31/01:00pm 31.6 27.1 5.9 20 13.7 NE 19 24 10 13 1017.0 1016.9 0.0
31/12:30pm 31.5 27.2 5.1 19 13.9 E 17 26 9 14 1017.4 - 0.0
31/12:00pm 31.3 27.9 5.7 20 13.6 ESE 13 20 7 11 1017.9 1017.8 0.0
31/11:30am 30.9 27.1 6.0 21 13.2 SE 15 22 8 12 1018.4 - 0.0
31/11:00am 29.6 25.4 5.6 22 12.6 SE 17 20 9 11 1018.7 1018.6 0.0
31/10:30am 29.2 24.9 5.3 22 12.4 SE 17 24 9 13 1018.8 - 0.0
31/10:00am 28.9 24.6 5.1 22 12.3 SE 17 22 9 12 1018.7 1018.6 0.0
31/09:30am 28.4 25.1 6.5 25 11.6 SSE 13 17 7 9 1018.7 - 0.0
31/09:00am 25.5 23.8 8.5 34 9.1 S 7 11 4 6 1018.5 1018.4 0.0
31/08:30am 21.7 21.6 9.3 45 6.6 CALM 0 0 0 0 1018.5 - 0.0
31/08:00am 19.1 19.0 9.6 54 5.0 CALM 0 0 0 0 1018.4 1018.3 0.0
31/07:30am 15.6 14.7 9.1 65 3.3 E 4 6 2 3 1018.3 - 0.0
31/07:00am 14.3 12.6 7.6 64 3.3 NNW 6 6 3 3 1018.1 1018.0 0.0
31/06:30am 14.4 12.8 7.9 65 3.2 NNE 6 7 3 4 1017.9 - 0.0
31/06:00am 14.7 13.1 8.0 64 3.3 E 6 13 3 7 1017.5 1017.4 0.0
31/05:30am 15.6 14.5 8.4 62 3.6 SSE 4 7 2 4 1017.4 - 0.0
31/05:00am 14.0 11.5 8.4 69 2.8 SSW 11 15 6 8 1017.1 1017.0 0.0
31/04:30am 13.4 12.5 7.6 68 2.8 W 2 9 1 5 1016.9 - 0.0
31/04:00am 14.5 12.9 8.9 69 2.8 N 7 13 4 7 1016.9 1016.8 0.0
31/03:30am 15.4 14.1 9.1 66 3.2 WSW 6 7 3 4 1016.9 - 0.0
31/03:00am 14.3 11.8 8.0 66 3.1 S 11 13 6 7 1017.2 1017.1 0.0
31/02:30am 14.9 12.2 8.8 67 3.1 SSW 13 15 7 8 1017.3 - 0.0
31/02:00am 15.1 12.0 8.8 66 3.2 SSW 15 19 8 10 1017.2 1017.1 0.0
31/01:30am 16.3 15.0 9.9 66 3.4 W 7 11 4 6 1017.2 - 0.0
31/01:00am 16.0 14.7 9.2 64 3.5 WSW 6 9 3 5 1017.4 1017.3 0.0
31/12:30am 16.6 14.8 9.5 63 3.7 SSW 9 11 5 6 1017.7 - 0.0
31/12:00am 17.9 17.1 9.8 59 4.3 W 4 7 2 4 1017.7 1017.6 0.0
 
Date/Time
WST
Temp
°C
App
Temp
°C
Dew
Point
Rel
Hum
%
Delta-T
°C
Wind Press
QNH
hPa
Press
MSL
hPa
Rain
since 9 am
mm
Dir
 
Spd
km/h
Gust
km/h
Spd
kts
Gust
kts
30/11:30pm 18.2 16.1 9.8 58 4.4 SSW 11 13 6 7 1017.8 - 0.0
30/11:00pm 18.5 16.4 9.8 57 4.6 S 11 15 6 8 1017.9 1017.8 0.0
30/10:30pm 19.8 16.8 10.8 56 4.9 SSW 17 17 9 9 1018.0 - 0.0
30/10:00pm 19.2 17.1 11.0 59 4.5 SW 13 15 7 8 1018.0 1017.9 0.0
30/09:30pm 19.7 17.6 11.2 58 4.7 SSW 13 19 7 10 1017.8 - 0.0
30/09:00pm 19.7 18.5 11.5 59 4.5 S 9 15 5 8 1017.9 1017.8 0.0
30/08:30pm 19.4 19.2 11.7 61 4.2 SW 4 7 2 4 1017.8 - 0.0
30/08:00pm 21.0 20.8 13.7 63 4.2 NW 7 11 4 6 1017.4 1017.3 0.0
30/07:30pm 20.7 20.3 12.9 61 4.4 N 7 9 4 5 1017.1 - 0.0
30/07:00pm 21.4 21.0 12.3 56 5.1 NNW 6 7 3 4 1017.0 1016.9 0.0
30/06:30pm 21.9 20.6 11.3 51 5.9 NNW 9 11 5 6 1016.8 - 0.0
30/06:00pm 24.2 21.9 10.5 42 7.6 N 13 17 7 9 1016.6 1016.5 0.0
30/05:30pm 26.3 22.3 9.2 34 9.4 N 20 26 11 14 1016.7 - 0.0
30/05:00pm 27.1 22.8 8.0 30 10.3 N 20 26 11 14 1016.7 1016.6 0.0
30/04:30pm 28.3 23.4 7.0 26 11.4 N 22 30 12 16 1016.5 - 0.0
30/04:00pm 28.7 23.5 7.3 26 11.5 N 24 30 13 16 1016.4 1016.3 0.0
30/03:30pm 29.5 24.2 6.8 24 12.1 NNE 24 30 13 16 1016.4 - 0.0
30/03:00pm 29.4 24.1 6.7 24 12.1 NNE 24 30 13 16 1016.6 1016.5 0.0
30/02:30pm 29.4 24.2 7.3 25 11.9 N 24 30 13 16 1016.8 - 0.0
30/02:00pm 29.8 24.6 7.1 24 12.2 N 24 30 13 16 1017.0 1016.9 0.0
30/01:30pm 29.6 23.9 6.9 24 12.2 N 26 32 14 17 1017.3 - 0.0
30/01:00pm 30.9 25.6 6.7 22 13.0 NNE 24 32 13 17 1017.7 1017.6 0.0
30/12:30pm 30.2 24.5 6.8 23 12.6 NNE 26 33 14 18 1018.2 - 0.0

Other Formats:

Comma delimited format used in spreadsheet applications
http://www.bom.gov.au/fwo/IDW60801/IDW60801.94308.axf

JavaScript Object Notation format (JSON) in row-major order
http://www.bom.gov.au/fwo/IDW60801/IDW60801.94308.json